YM Kaohsiung — MCGF6 — position and weather

sailwx.info

Track history (hours):
 
Tides and Currents Weather Stations Pressure Air Temp Water Temp Dewpoint Dewpoint Depression Visibility Wind Speed Wind Dir Waves Ship Positions

YM Kaohsiung

Last reported at 2014-Dec-20 11:04 UTC. Time now 2014-Dec-21 05:27 UTC.
Position N 36°32' E 122°36'.

Length 260 m; draft 10.8 m.

Type: Cargo ship. MMSI: 235767000.

Date/timePositionNaut miles runAvg speedWind from/ knotsBaromVisibWave heightAir tempDewpointWater temp
2014-Dec-20 11:04N 36°32' E 122°36'712.8
2014-Dec-20 10:32N 36°38' E 122°41'1212.1
2014-Dec-20 09:33N 36°48' E 122°48'1212.0
2014-Dec-20 08:33N 36°60' E 122°54'1212.2
2014-Dec-20 07:33N 37°12' E 122°56'101 4.4
2014-Dec-19 08:33N 38°38' E 121°49'1413.5
2014-Dec-19 07:33N 38°27' E 121°38'17116.8
2014-Dec-18 21:21N 38°56' E 118°01'1012.8
2014-Dec-18 20:33N 38°58' E 117°49'2 1.8
2014-Dec-18 19:27N 38°60' E 117°47'0 0.0
2014-Dec-18 18:32N 38°60' E 117°47'0 0.0
2014-Dec-18 17:32N 38°60' E 117°47'0 0.0
2014-Dec-18 16:32N 38°60' E 117°47'0 0.0
2014-Dec-18 15:26N 38°60' E 117°47'0 0.0
2014-Dec-18 14:21N 38°60' E 117°47'0 0.0
2014-Dec-18 13:32N 38°60' E 117°47'0 0.0
2014-Dec-18 12:32N 38°60' E 117°47'0 0.0
2014-Dec-18 11:13N 38°60' E 117°47'0 0.0
2014-Dec-18 10:31N 38°60' E 117°47'0 0.0
2014-Dec-18 09:13N 38°60' E 117°47'0 0.0
2014-Dec-18 08:25N 38°60' E 117°47'0 0.0
2014-Dec-18 07:30N 38°60' E 117°47'0 0.0
2014-Dec-18 06:12N 38°60' E 117°47'0 0.5
2014-Dec-18 05:33N 38°59' E 117°47'1110.5
2014-Dec-18 04:32N 38°56' E 118°01'2 1.8
2014-Dec-18 03:33N 38°56' E 118°03'6 6.0
2014-Dec-18 02:33N 38°54' E 118°10'1210.8
2014-Dec-18 01:27N 38°51' E 118°24'19011.8
2014-Dec-17 09:22N 37°55' E 122°16'1214.0
2014-Dec-17 08:33N 37°49' E 122°28'1514.2
2014-Dec-17 07:28N 37°40' E 122°43'3415.7
2014-Dec-17 05:20N 37°13' E 123°08'2117.5
2014-Dec-17 04:09N 36°52' E 123°10'76514.8
2014-Dec-15 00:33N 24°33' E 119°20'6219.0
2014-Dec-14 21:18N 23°52' E 118°30'1519.3
2014-Dec-14 20:30N 23°41' E 118°18'24516.4
2014-Dec-14 05:33N 22°19' E 114°07'1 0.1
2014-Dec-13 14:33N 22°19' E 114°06'  
Track history (hours):
 
Tides and Currents Weather Stations Pressure Air Temp Water Temp Dewpoint Dewpoint Depression Visibility Wind Speed Wind Dir Waves Ship Positions

YM Kaohsiung

Last reported at 2014-Dec-20 11:04 UTC. Time now 2014-Dec-21 05:28 UTC.
Position N 36°32' E 122°36'.

Length 260 m; draft 10.8 m.

Type: Cargo ship. MMSI: 235767000.

Date/timePositionNaut miles runAvg speedWind from/ knotsBaromVisibWave heightAir tempDewpointWater temp
2014-Dec-20 11:04N 36°32' E 122°36'712.8
2014-Dec-20 10:32N 36°38' E 122°41'1212.1
2014-Dec-20 09:33N 36°48' E 122°48'1212.0
2014-Dec-20 08:33N 36°60' E 122°54'1212.2
2014-Dec-20 07:33N 37°12' E 122°56'101 4.4
2014-Dec-19 08:33N 38°38' E 121°49'1413.5
2014-Dec-19 07:33N 38°27' E 121°38'17116.8
2014-Dec-18 21:21N 38°56' E 118°01'1012.8
2014-Dec-18 20:33N 38°58' E 117°49'2 1.8
2014-Dec-18 19:27N 38°60' E 117°47'0 0.0
2014-Dec-18 18:32N 38°60' E 117°47'0 0.0
2014-Dec-18 17:32N 38°60' E 117°47'0 0.0
2014-Dec-18 16:32N 38°60' E 117°47'0 0.0
2014-Dec-18 15:26N 38°60' E 117°47'0 0.0
2014-Dec-18 14:21N 38°60' E 117°47'0 0.0
2014-Dec-18 13:32N 38°60' E 117°47'0 0.0
2014-Dec-18 12:32N 38°60' E 117°47'0 0.0
2014-Dec-18 11:13N 38°60' E 117°47'0 0.0
2014-Dec-18 10:31N 38°60' E 117°47'0 0.0
2014-Dec-18 09:13N 38°60' E 117°47'0 0.0
2014-Dec-18 08:25N 38°60' E 117°47'0 0.0
2014-Dec-18 07:30N 38°60' E 117°47'0 0.0
2014-Dec-18 06:12N 38°60' E 117°47'0 0.5
2014-Dec-18 05:33N 38°59' E 117°47'1110.5
2014-Dec-18 04:32N 38°56' E 118°01'2 1.8
2014-Dec-18 03:33N 38°56' E 118°03'6 6.0
2014-Dec-18 02:33N 38°54' E 118°10'1210.8
2014-Dec-18 01:27N 38°51' E 118°24'19011.8
2014-Dec-17 09:22N 37°55' E 122°16'1214.0
2014-Dec-17 08:33N 37°49' E 122°28'1514.2
2014-Dec-17 07:28N 37°40' E 122°43'3415.7
2014-Dec-17 05:20N 37°13' E 123°08'2117.5
2014-Dec-17 04:09N 36°52' E 123°10'76514.8
2014-Dec-15 00:33N 24°33' E 119°20'6219.0
2014-Dec-14 21:18N 23°52' E 118°30'1519.3
2014-Dec-14 20:30N 23°41' E 118°18'24516.4
2014-Dec-14 05:33N 22°19' E 114°07'1 0.1
2014-Dec-13 14:33N 22°19' E 114°06'  

Dump ship's entire track history